Buckhannon, West Virginia
Current Conditions -  °F | °C
As of 10:15 AM on Thursday 23 Oct 2014 (Local Time) from KW22 Reporting Station
Overcast Overcast  
Wind Chill: 45°   Ceiling: 700
Heat Index: 45°   Visibility: 9mi
Dew Point: 43°   Wind: 0mph
Humidity: 93%   Direction: NA
Pressure: 30.18"   Gusts: NA
Location:  38.99°N, 80.23°W
Report Text: KW22 231415Z AUTO 00000KT 9SM OVC007 07/06 A3018 RMK AO2
Loading
Personal Weather Stations






























Interactive Weather Map
Tropical Storm Tracking
New forecast layout! Learn more

10-Day Weather Forecast

Advertisements
Track Severe Weather on mobile